sensor_id;sensor_type;location;lat;lon;timestamp;temperature;humidity
60313;DHT22;46158;52.850;6.970;2023-12-07T00:01:06;14.70;74.10
60313;DHT22;46158;52.850;6.970;2023-12-07T00:03:32;14.70;74.10
60313;DHT22;46158;52.850;6.970;2023-12-07T00:05:57;14.70;74.10
60313;DHT22;46158;52.850;6.970;2023-12-07T00:08:23;14.60;74.10
60313;DHT22;46158;52.850;6.970;2023-12-07T00:10:49;14.60;74.00
60313;DHT22;46158;52.850;6.970;2023-12-07T00:13:14;14.60;74.10
60313;DHT22;46158;52.850;6.970;2023-12-07T00:15:40;14.60;74.00
60313;DHT22;46158;52.850;6.970;2023-12-07T00:18:06;14.50;74.00
60313;DHT22;46158;52.850;6.970;2023-12-07T00:20:32;14.50;74.00
60313;DHT22;46158;52.850;6.970;2023-12-07T00:22:58;14.50;74.00
60313;DHT22;46158;52.850;6.970;2023-12-07T00:25:23;14.50;74.00
60313;DHT22;46158;52.850;6.970;2023-12-07T00:27:49;14.50;74.00
60313;DHT22;46158;52.850;6.970;2023-12-07T00:30:15;14.50;74.00
60313;DHT22;46158;52.850;6.970;2023-12-07T00:32:41;14.40;73.90
60313;DHT22;46158;52.850;6.970;2023-12-07T00:35:10;14.40;73.90
60313;DHT22;46158;52.850;6.970;2023-12-07T00:37:36;14.40;73.90
60313;DHT22;46158;52.850;6.970;2023-12-07T00:40:02;14.40;73.90
60313;DHT22;46158;52.850;6.970;2023-12-07T00:42:29;14.40;73.90
60313;DHT22;46158;52.850;6.970;2023-12-07T00:44:55;14.30;73.80
60313;DHT22;46158;52.850;6.970;2023-12-07T00:47:21;14.30;73.90
60313;DHT22;46158;52.850;6.970;2023-12-07T00:49:47;14.30;73.80
60313;DHT22;46158;52.850;6.970;2023-12-07T00:52:13;14.30;74.50
60313;DHT22;46158;52.850;6.970;2023-12-07T00:54:39;14.30;73.80
60313;DHT22;46158;52.850;6.970;2023-12-07T00:57:05;14.30;73.90
60313;DHT22;46158;52.850;6.970;2023-12-07T00:59:31;14.20;73.80
60313;DHT22;46158;52.850;6.970;2023-12-07T01:02:02;14.20;73.70
60313;DHT22;46158;52.850;6.970;2023-12-07T01:04:28;14.20;73.70
60313;DHT22;46158;52.850;6.970;2023-12-07T01:06:54;14.20;73.80
60313;DHT22;46158;52.850;6.970;2023-12-07T01:09:20;14.20;73.80
60313;DHT22;46158;52.850;6.970;2023-12-07T01:11:45;14.20;73.80
60313;DHT22;46158;52.850;6.970;2023-12-07T01:14:11;14.10;73.70
60313;DHT22;46158;52.850;6.970;2023-12-07T01:16:37;14.10;73.70
60313;DHT22;46158;52.850;6.970;2023-12-07T01:19:02;14.10;73.70
60313;DHT22;46158;52.850;6.970;2023-12-07T01:21:28;14.10;73.70
60313;DHT22;46158;52.850;6.970;2023-12-07T01:23:54;14.10;74.40
60313;DHT22;46158;52.850;6.970;2023-12-07T01:26:20;14.00;73.60
60313;DHT22;46158;52.850;6.970;2023-12-07T01:28:46;14.00;73.70
60313;DHT22;46158;52.850;6.970;2023-12-07T01:31:12;14.00;73.60
60313;DHT22;46158;52.850;6.970;2023-12-07T01:33:37;14.00;73.70
60313;DHT22;46158;52.850;6.970;2023-12-07T01:36:03;14.00;74.40
60313;DHT22;46158;52.850;6.970;2023-12-07T01:38:29;14.00;73.70
60313;DHT22;46158;52.850;6.970;2023-12-07T01:40:54;14.00;73.70
60313;DHT22;46158;52.850;6.970;2023-12-07T01:43:22;13.90;73.70
60313;DHT22;46158;52.850;6.970;2023-12-07T01:45:49;13.90;73.60
60313;DHT22;46158;52.850;6.970;2023-12-07T01:48:19;13.90;73.70
60313;DHT22;46158;52.850;6.970;2023-12-07T01:50:46;13.80;73.80
60313;DHT22;46158;52.850;6.970;2023-12-07T01:53:12;13.80;74.50
60313;DHT22;46158;52.850;6.970;2023-12-07T01:55:38;13.90;73.80
60313;DHT22;46158;52.850;6.970;2023-12-07T01:58:06;13.80;73.70
60313;DHT22;46158;52.850;6.970;2023-12-07T02:00:33;13.80;73.70
60313;DHT22;46158;52.850;6.970;2023-12-07T02:02:59;13.80;73.70
60313;DHT22;46158;52.850;6.970;2023-12-07T02:05:25;13.80;73.70
60313;DHT22;46158;52.850;6.970;2023-12-07T02:07:51;13.80;73.60
60313;DHT22;46158;52.850;6.970;2023-12-07T02:10:17;13.70;73.60
60313;DHT22;46158;52.850;6.970;2023-12-07T02:12:45;13.80;73.60
60313;DHT22;46158;52.850;6.970;2023-12-07T02:15:11;13.80;73.60
60313;DHT22;46158;52.850;6.970;2023-12-07T02:17:47;13.70;73.60
60313;DHT22;46158;52.850;6.970;2023-12-07T02:20:55;13.70;73.50
60313;DHT22;46158;52.850;6.970;2023-12-07T02:23:19;13.70;73.50
60313;DHT22;46158;52.850;6.970;2023-12-07T02:26:02;13.60;73.60
60313;DHT22;46158;52.850;6.970;2023-12-07T02:28:28;13.60;73.50
60313;DHT22;46158;52.850;6.970;2023-12-07T02:30:53;13.60;73.50
60313;DHT22;46158;52.850;6.970;2023-12-07T02:33:19;13.60;73.50
60313;DHT22;46158;52.850;6.970;2023-12-07T02:35:45;13.60;73.60
60313;DHT22;46158;52.850;6.970;2023-12-07T02:38:11;13.60;73.50
60313;DHT22;46158;52.850;6.970;2023-12-07T02:40:37;13.60;73.60
60313;DHT22;46158;52.850;6.970;2023-12-07T02:43:04;13.50;73.50
60313;DHT22;46158;52.850;6.970;2023-12-07T02:45:30;13.50;73.50
60313;DHT22;46158;52.850;6.970;2023-12-07T02:47:57;13.60;74.20
60313;DHT22;46158;52.850;6.970;2023-12-07T02:50:23;13.50;73.50
60313;DHT22;46158;52.850;6.970;2023-12-07T02:52:49;13.50;73.40
60313;DHT22;46158;52.850;6.970;2023-12-07T02:55:15;13.50;73.40
60313;DHT22;46158;52.850;6.970;2023-12-07T02:57:40;13.50;73.40
60313;DHT22;46158;52.850;6.970;2023-12-07T03:00:06;13.50;73.40
60313;DHT22;46158;52.850;6.970;2023-12-07T03:02:34;13.50;73.40
60313;DHT22;46158;52.850;6.970;2023-12-07T03:05:00;13.40;73.40
60313;DHT22;46158;52.850;6.970;2023-12-07T03:07:26;13.40;73.40
60313;DHT22;46158;52.850;6.970;2023-12-07T03:09:51;13.40;73.40
60313;DHT22;46158;52.850;6.970;2023-12-07T03:12:17;13.40;73.40
60313;DHT22;46158;52.850;6.970;2023-12-07T03:14:42;13.40;73.40
60313;DHT22;46158;52.850;6.970;2023-12-07T03:17:08;13.40;73.40
60313;DHT22;46158;52.850;6.970;2023-12-07T03:19:41;13.40;73.40
60313;DHT22;46158;52.850;6.970;2023-12-07T03:22:07;13.40;73.40
60313;DHT22;46158;52.850;6.970;2023-12-07T03:24:35;13.30;73.30
60313;DHT22;46158;52.850;6.970;2023-12-07T03:27:00;13.30;73.30
60313;DHT22;46158;52.850;6.970;2023-12-07T03:29:26;13.30;73.30
60313;DHT22;46158;52.850;6.970;2023-12-07T03:31:52;13.30;73.30
60313;DHT22;46158;52.850;6.970;2023-12-07T03:34:17;13.30;73.30
60313;DHT22;46158;52.850;6.970;2023-12-07T03:36:45;13.20;73.20
60313;DHT22;46158;52.850;6.970;2023-12-07T03:39:13;13.20;73.20
60313;DHT22;46158;52.850;6.970;2023-12-07T03:41:38;13.20;73.20
60313;DHT22;46158;52.850;6.970;2023-12-07T03:44:04;13.20;73.20
60313;DHT22;46158;52.850;6.970;2023-12-07T03:46:29;13.20;73.30
60313;DHT22;46158;52.850;6.970;2023-12-07T03:48:55;13.20;73.30
60313;DHT22;46158;52.850;6.970;2023-12-07T03:51:21;13.20;73.30
60313;DHT22;46158;52.850;6.970;2023-12-07T03:53:47;13.20;73.30
60313;DHT22;46158;52.850;6.970;2023-12-07T03:56:23;13.10;73.20
60313;DHT22;46158;52.850;6.970;2023-12-07T03:58:49;13.10;73.10
60313;DHT22;46158;52.850;6.970;2023-12-07T04:01:14;13.10;73.20
60313;DHT22;46158;52.850;6.970;2023-12-07T04:03:40;13.10;73.20
60313;DHT22;46158;52.850;6.970;2023-12-07T04:06:09;13.10;73.20
60313;DHT22;46158;52.850;6.970;2023-12-07T04:08:34;13.10;73.20
60313;DHT22;46158;52.850;6.970;2023-12-07T04:11:00;13.10;73.20
60313;DHT22;46158;52.850;6.970;2023-12-07T04:13:26;13.10;73.20
60313;DHT22;46158;52.850;6.970;2023-12-07T04:15:51;13.10;73.20
60313;DHT22;46158;52.850;6.970;2023-12-07T04:18:17;13.00;73.20
60313;DHT22;46158;52.850;6.970;2023-12-07T04:20:43;13.00;73.20
60313;DHT22;46158;52.850;6.970;2023-12-07T04:23:09;13.00;73.10
60313;DHT22;46158;52.850;6.970;2023-12-07T04:25:34;13.00;73.20
60313;DHT22;46158;52.850;6.970;2023-12-07T04:28:00;13.00;73.20
60313;DHT22;46158;52.850;6.970;2023-12-07T04:30:26;13.00;73.10
60313;DHT22;46158;52.850;6.970;2023-12-07T04:32:51;13.00;73.20
60313;DHT22;46158;52.850;6.970;2023-12-07T04:35:17;13.00;73.20
60313;DHT22;46158;52.850;6.970;2023-12-07T04:37:42;13.00;73.20
60313;DHT22;46158;52.850;6.970;2023-12-07T04:40:08;12.90;73.10
60313;DHT22;46158;52.850;6.970;2023-12-07T04:42:36;12.90;73.10
60313;DHT22;46158;52.850;6.970;2023-12-07T04:45:02;12.90;73.10
60313;DHT22;46158;52.850;6.970;2023-12-07T04:47:28;13.00;73.10
60313;DHT22;46158;52.850;6.970;2023-12-07T04:49:54;12.90;73.00
60313;DHT22;46158;52.850;6.970;2023-12-07T04:52:19;12.90;72.90
60313;DHT22;46158;52.850;6.970;2023-12-07T04:54:45;13.00;73.00
60313;DHT22;46158;52.850;6.970;2023-12-07T04:57:10;13.00;73.00
60313;DHT22;46158;52.850;6.970;2023-12-07T04:59:36;13.00;73.00
60313;DHT22;46158;52.850;6.970;2023-12-07T05:02:02;13.00;73.00
60313;DHT22;46158;52.850;6.970;2023-12-07T05:04:27;13.00;72.90
60313;DHT22;46158;52.850;6.970;2023-12-07T05:06:53;13.00;72.90
60313;DHT22;46158;52.850;6.970;2023-12-07T05:09:19;13.00;72.90
60313;DHT22;46158;52.850;6.970;2023-12-07T05:11:44;13.00;73.00
60313;DHT22;46158;52.850;6.970;2023-12-07T05:14:11;13.00;72.90
60313;DHT22;46158;52.850;6.970;2023-12-07T05:16:36;12.90;72.90
60313;DHT22;46158;52.850;6.970;2023-12-07T05:19:02;13.00;73.70
60313;DHT22;46158;52.850;6.970;2023-12-07T05:21:28;13.00;72.90
60313;DHT22;46158;52.850;6.970;2023-12-07T05:23:54;12.90;72.90
60313;DHT22;46158;52.850;6.970;2023-12-07T05:26:19;13.00;72.90
60313;DHT22;46158;52.850;6.970;2023-12-07T05:28:47;12.90;72.90
60313;DHT22;46158;52.850;6.970;2023-12-07T05:31:17;13.00;72.90
60313;DHT22;46158;52.850;6.970;2023-12-07T05:33:44;13.00;72.80
60313;DHT22;46158;52.850;6.970;2023-12-07T05:36:10;13.00;72.90
60313;DHT22;46158;52.850;6.970;2023-12-07T05:38:35;13.00;72.80
60313;DHT22;46158;52.850;6.970;2023-12-07T05:41:01;13.00;72.80
60313;DHT22;46158;52.850;6.970;2023-12-07T05:43:27;13.00;72.80
60313;DHT22;46158;52.850;6.970;2023-12-07T05:45:52;13.00;72.80
60313;DHT22;46158;52.850;6.970;2023-12-07T05:48:18;13.00;72.90
60313;DHT22;46158;52.850;6.970;2023-12-07T05:50:44;13.00;72.90
60313;DHT22;46158;52.850;6.970;2023-12-07T05:53:09;13.00;72.90
60313;DHT22;46158;52.850;6.970;2023-12-07T05:55:36;12.90;72.90
60313;DHT22;46158;52.850;6.970;2023-12-07T05:58:02;13.00;72.80
60313;DHT22;46158;52.850;6.970;2023-12-07T06:00:29;13.00;72.80
60313;DHT22;46158;52.850;6.970;2023-12-07T06:02:55;12.90;72.70
60313;DHT22;46158;52.850;6.970;2023-12-07T06:05:20;13.00;72.80
60313;DHT22;46158;52.850;6.970;2023-12-07T06:07:46;12.90;72.70
60313;DHT22;46158;52.850;6.970;2023-12-07T06:10:12;13.00;72.80
60313;DHT22;46158;52.850;6.970;2023-12-07T06:12:37;13.00;72.80
60313;DHT22;46158;52.850;6.970;2023-12-07T06:15:04;13.00;72.90
60313;DHT22;46158;52.850;6.970;2023-12-07T06:17:33;13.00;72.90
60313;DHT22;46158;52.850;6.970;2023-12-07T06:19:59;13.00;72.90
60313;DHT22;46158;52.850;6.970;2023-12-07T06:22:24;13.00;72.90
60313;DHT22;46158;52.850;6.970;2023-12-07T06:24:50;13.00;72.90
60313;DHT22;46158;52.850;6.970;2023-12-07T06:27:16;13.00;72.90
60313;DHT22;46158;52.850;6.970;2023-12-07T06:29:41;13.00;72.90
60313;DHT22;46158;52.850;6.970;2023-12-07T06:32:07;13.00;72.90
60313;DHT22;46158;52.850;6.970;2023-12-07T06:34:32;12.90;72.80
60313;DHT22;46158;52.850;6.970;2023-12-07T06:36:58;13.00;72.90
60313;DHT22;46158;52.850;6.970;2023-12-07T06:39:24;13.00;72.80
60313;DHT22;46158;52.850;6.970;2023-12-07T06:41:49;13.00;72.90
60313;DHT22;46158;52.850;6.970;2023-12-07T06:44:15;13.00;72.90
60313;DHT22;46158;52.850;6.970;2023-12-07T06:46:40;13.00;72.90
60313;DHT22;46158;52.850;6.970;2023-12-07T06:49:06;12.90;72.80
60313;DHT22;46158;52.850;6.970;2023-12-07T06:51:32;12.90;72.90
60313;DHT22;46158;52.850;6.970;2023-12-07T06:53:57;12.90;72.90
60313;DHT22;46158;52.850;6.970;2023-12-07T06:56:23;12.90;73.00
60313;DHT22;46158;52.850;6.970;2023-12-07T06:58:48;12.90;73.00
60313;DHT22;46158;52.850;6.970;2023-12-07T07:01:14;13.00;73.00
60313;DHT22;46158;52.850;6.970;2023-12-07T07:03:39;12.90;72.90
60313;DHT22;46158;52.850;6.970;2023-12-07T07:06:05;12.90;73.00
60313;DHT22;46158;52.850;6.970;2023-12-07T07:08:31;12.90;73.00
60313;DHT22;46158;52.850;6.970;2023-12-07T07:10:56;12.90;73.10
60313;DHT22;46158;52.850;6.970;2023-12-07T07:13:22;12.90;73.00
60313;DHT22;46158;52.850;6.970;2023-12-07T07:15:49;13.00;73.20
60313;DHT22;46158;52.850;6.970;2023-12-07T07:18:14;13.00;73.20
60313;DHT22;46158;52.850;6.970;2023-12-07T07:20:40;13.00;73.20
60313;DHT22;46158;52.850;6.970;2023-12-07T07:23:06;13.00;73.20
60313;DHT22;46158;52.850;6.970;2023-12-07T07:25:33;13.00;73.20
60313;DHT22;46158;52.850;6.970;2023-12-07T07:28:00;13.00;73.10
60313;DHT22;46158;52.850;6.970;2023-12-07T07:30:25;13.00;73.20
60313;DHT22;46158;52.850;6.970;2023-12-07T07:32:52;13.00;73.10
60313;DHT22;46158;52.850;6.970;2023-12-07T07:35:18;13.00;73.10
60313;DHT22;46158;52.850;6.970;2023-12-07T07:37:43;13.00;73.00
60313;DHT22;46158;52.850;6.970;2023-12-07T07:40:10;13.00;73.00
60313;DHT22;46158;52.850;6.970;2023-12-07T07:42:38;13.00;73.00
60313;DHT22;46158;52.850;6.970;2023-12-07T07:45:09;13.00;72.90
60313;DHT22;46158;52.850;6.970;2023-12-07T07:47:35;13.00;72.90
60313;DHT22;46158;52.850;6.970;2023-12-07T07:50:00;13.00;73.60
60313;DHT22;46158;52.850;6.970;2023-12-07T07:52:32;13.00;72.90
60313;DHT22;46158;52.850;6.970;2023-12-07T07:54:59;13.00;72.90
60313;DHT22;46158;52.850;6.970;2023-12-07T07:57:24;13.00;72.90
60313;DHT22;46158;52.850;6.970;2023-12-07T07:59:50;13.00;72.90
60313;DHT22;46158;52.850;6.970;2023-12-07T08:02:15;13.00;72.90
60313;DHT22;46158;52.850;6.970;2023-12-07T08:04:41;13.00;72.90
60313;DHT22;46158;52.850;6.970;2023-12-07T08:07:07;13.10;72.90
60313;DHT22;46158;52.850;6.970;2023-12-07T08:09:33;13.10;72.80
60313;DHT22;46158;52.850;6.970;2023-12-07T08:11:58;13.10;72.80
60313;DHT22;46158;52.850;6.970;2023-12-07T08:14:24;13.10;72.70
60313;DHT22;46158;52.850;6.970;2023-12-07T08:16:50;13.10;72.70
60313;DHT22;46158;52.850;6.970;2023-12-07T08:19:15;13.10;72.60
60313;DHT22;46158;52.850;6.970;2023-12-07T08:21:41;13.20;72.60
60313;DHT22;46158;52.850;6.970;2023-12-07T08:24:07;13.20;72.60
60313;DHT22;46158;52.850;6.970;2023-12-07T08:26:32;13.20;72.50
60313;DHT22;46158;52.850;6.970;2023-12-07T08:28:58;13.30;72.50
60313;DHT22;46158;52.850;6.970;2023-12-07T08:31:24;13.30;72.50
60313;DHT22;46158;52.850;6.970;2023-12-07T08:33:52;13.30;72.40
60313;DHT22;46158;52.850;6.970;2023-12-07T08:36:18;13.40;72.30
60313;DHT22;46158;52.850;6.970;2023-12-07T08:38:44;13.30;72.20
60313;DHT22;46158;52.850;6.970;2023-12-07T08:41:09;13.30;72.20
60313;DHT22;46158;52.850;6.970;2023-12-07T08:43:35;13.40;72.20
60313;DHT22;46158;52.850;6.970;2023-12-07T08:46:01;13.40;72.10
60313;DHT22;46158;52.850;6.970;2023-12-07T08:48:26;13.40;72.10
60313;DHT22;46158;52.850;6.970;2023-12-07T08:50:52;13.50;72.00
60313;DHT22;46158;52.850;6.970;2023-12-07T08:53:18;13.50;72.00
60313;DHT22;46158;52.850;6.970;2023-12-07T08:55:43;13.50;72.60
60313;DHT22;46158;52.850;6.970;2023-12-07T08:58:09;13.50;71.80
60313;DHT22;46158;52.850;6.970;2023-12-07T09:00:37;13.60;71.80
60313;DHT22;46158;52.850;6.970;2023-12-07T09:03:03;13.60;71.80
60313;DHT22;46158;52.850;6.970;2023-12-07T09:05:29;13.60;71.70
60313;DHT22;46158;52.850;6.970;2023-12-07T09:07:55;13.70;71.70
60313;DHT22;46158;52.850;6.970;2023-12-07T09:10:22;13.70;71.60
60313;DHT22;46158;52.850;6.970;2023-12-07T09:12:48;13.70;71.60
60313;DHT22;46158;52.850;6.970;2023-12-07T09:15:14;13.80;71.60
60313;DHT22;46158;52.850;6.970;2023-12-07T09:17:39;13.80;71.50
60313;DHT22;46158;52.850;6.970;2023-12-07T09:20:09;13.80;71.40
60313;DHT22;46158;52.850;6.970;2023-12-07T09:22:43;13.80;71.40
60313;DHT22;46158;52.850;6.970;2023-12-07T09:25:10;13.90;71.30
60313;DHT22;46158;52.850;6.970;2023-12-07T09:27:36;13.90;71.30
60313;DHT22;46158;52.850;6.970;2023-12-07T09:30:06;13.90;71.20
60313;DHT22;46158;52.850;6.970;2023-12-07T09:32:41;13.90;71.10
60313;DHT22;46158;52.850;6.970;2023-12-07T09:35:09;13.90;71.10
60313;DHT22;46158;52.850;6.970;2023-12-07T09:37:40;13.90;71.10
60313;DHT22;46158;52.850;6.970;2023-12-07T09:40:06;13.90;71.10
60313;DHT22;46158;52.850;6.970;2023-12-07T09:42:33;13.90;71.10
60313;DHT22;46158;52.850;6.970;2023-12-07T09:44:59;13.90;71.10
60313;DHT22;46158;52.850;6.970;2023-12-07T09:47:26;13.90;71.00
60313;DHT22;46158;52.850;6.970;2023-12-07T09:49:53;13.90;71.00
60313;DHT22;46158;52.850;6.970;2023-12-07T09:52:19;13.90;70.90
60313;DHT22;46158;52.850;6.970;2023-12-07T09:54:47;13.90;71.00
60313;DHT22;46158;52.850;6.970;2023-12-07T09:57:12;13.90;70.90
60313;DHT22;46158;52.850;6.970;2023-12-07T09:59:40;13.90;70.80
60313;DHT22;46158;52.850;6.970;2023-12-07T10:02:06;13.90;70.80
60313;DHT22;46158;52.850;6.970;2023-12-07T10:04:33;13.90;70.70
60313;DHT22;46158;52.850;6.970;2023-12-07T10:06:58;13.90;70.70
60313;DHT22;46158;52.850;6.970;2023-12-07T10:09:24;13.90;70.70
60313;DHT22;46158;52.850;6.970;2023-12-07T10:12:02;13.90;70.60
60313;DHT22;46158;52.850;6.970;2023-12-07T10:14:29;14.00;70.50
60313;DHT22;46158;52.850;6.970;2023-12-07T10:16:55;14.00;70.60
60313;DHT22;46158;52.850;6.970;2023-12-07T10:19:22;14.00;71.30
60313;DHT22;46158;52.850;6.970;2023-12-07T10:21:48;14.00;70.50
60313;DHT22;46158;52.850;6.970;2023-12-07T10:24:16;14.00;70.40
60313;DHT22;46158;52.850;6.970;2023-12-07T10:26:43;14.00;70.40
60313;DHT22;46158;52.850;6.970;2023-12-07T10:29:10;14.00;70.30
60313;DHT22;46158;52.850;6.970;2023-12-07T10:31:36;14.00;70.30
60313;DHT22;46158;52.850;6.970;2023-12-07T10:34:02;14.00;70.30
60313;DHT22;46158;52.850;6.970;2023-12-07T10:36:28;14.10;70.20
60313;DHT22;46158;52.850;6.970;2023-12-07T10:38:54;14.10;70.20
60313;DHT22;46158;52.850;6.970;2023-12-07T10:41:21;14.10;70.10
60313;DHT22;46158;52.850;6.970;2023-12-07T10:44:01;14.10;70.10
60313;DHT22;46158;52.850;6.970;2023-12-07T10:46:29;14.10;70.10
60313;DHT22;46158;52.850;6.970;2023-12-07T10:49:03;14.00;70.10
60313;DHT22;46158;52.850;6.970;2023-12-07T10:51:37;14.00;70.10
60313;DHT22;46158;52.850;6.970;2023-12-07T10:54:07;14.00;70.10
60313;DHT22;46158;52.850;6.970;2023-12-07T10:56:44;14.00;70.10
60313;DHT22;46158;52.850;6.970;2023-12-07T10:59:11;14.00;70.10
60313;DHT22;46158;52.850;6.970;2023-12-07T11:01:42;14.00;70.10
60313;DHT22;46158;52.850;6.970;2023-12-07T11:04:14;14.00;70.10
60313;DHT22;46158;52.850;6.970;2023-12-07T11:06:41;14.00;70.70
60313;DHT22;46158;52.850;6.970;2023-12-07T11:09:09;14.00;70.10
60313;DHT22;46158;52.850;6.970;2023-12-07T11:11:47;14.00;70.10
60313;DHT22;46158;52.850;6.970;2023-12-07T11:14:14;14.00;70.00
60313;DHT22;46158;52.850;6.970;2023-12-07T11:16:41;14.00;70.00
60313;DHT22;46158;52.850;6.970;2023-12-07T11:22:02;14.00;69.90
60313;DHT22;46158;52.850;6.970;2023-12-07T11:24:28;14.00;69.90
60313;DHT22;46158;52.850;6.970;2023-12-07T11:26:57;14.00;70.00
60313;DHT22;46158;52.850;6.970;2023-12-07T11:29:29;14.00;69.90
60313;DHT22;46158;52.850;6.970;2023-12-07T11:32:02;14.00;69.80
60313;DHT22;46158;52.850;6.970;2023-12-07T11:34:37;14.10;69.90
60313;DHT22;46158;52.850;6.970;2023-12-07T11:37:04;14.00;69.80
60313;DHT22;46158;52.850;6.970;2023-12-07T11:39:38;14.10;69.90
60313;DHT22;46158;52.850;6.970;2023-12-07T11:42:17;14.10;69.80
60313;DHT22;46158;52.850;6.970;2023-12-07T11:44:44;14.10;69.80
60313;DHT22;46158;52.850;6.970;2023-12-07T11:47:20;14.10;69.70
60313;DHT22;46158;52.850;6.970;2023-12-07T11:49:46;14.10;69.70
60313;DHT22;46158;52.850;6.970;2023-12-07T11:52:20;14.10;69.70
60313;DHT22;46158;52.850;6.970;2023-12-07T11:54:47;14.20;69.60
60313;DHT22;46158;52.850;6.970;2023-12-07T11:57:14;14.10;69.60
60313;DHT22;46158;52.850;6.970;2023-12-07T11:59:41;14.20;69.60
60313;DHT22;46158;52.850;6.970;2023-12-07T12:02:10;14.20;69.60
60313;DHT22;46158;52.850;6.970;2023-12-07T12:04:37;14.20;69.60
60313;DHT22;46158;52.850;6.970;2023-12-07T12:07:04;14.20;69.60
60313;DHT22;46158;52.850;6.970;2023-12-07T12:09:30;14.20;69.50
60313;DHT22;46158;52.850;6.970;2023-12-07T12:11:56;14.20;69.50
60313;DHT22;46158;52.850;6.970;2023-12-07T12:14:26;14.20;69.60
60313;DHT22;46158;52.850;6.970;2023-12-07T12:16:53;14.20;69.50
60313;DHT22;46158;52.850;6.970;2023-12-07T12:19:20;14.20;69.40
60313;DHT22;46158;52.850;6.970;2023-12-07T12:21:45;14.20;69.40
60313;DHT22;46158;52.850;6.970;2023-12-07T12:24:12;14.20;69.40
60313;DHT22;46158;52.850;6.970;2023-12-07T12:26:42;14.20;69.40
60313;DHT22;46158;52.850;6.970;2023-12-07T12:29:08;14.20;69.30
60313;DHT22;46158;52.850;6.970;2023-12-07T12:31:35;14.20;69.40
60313;DHT22;46158;52.850;6.970;2023-12-07T12:34:01;14.20;69.40
60313;DHT22;46158;52.850;6.970;2023-12-07T12:36:27;14.20;69.40
60313;DHT22;46158;52.850;6.970;2023-12-07T12:38:54;14.20;69.40
60313;DHT22;46158;52.850;6.970;2023-12-07T12:41:20;14.20;69.40
60313;DHT22;46158;52.850;6.970;2023-12-07T12:43:46;14.10;69.40
60313;DHT22;46158;52.850;6.970;2023-12-07T12:46:13;14.20;69.40
60313;DHT22;46158;52.850;6.970;2023-12-07T12:48:56;14.20;69.40
60313;DHT22;46158;52.850;6.970;2023-12-07T12:51:27;14.20;69.30
60313;DHT22;46158;52.850;6.970;2023-12-07T12:53:54;14.20;69.40
60313;DHT22;46158;52.850;6.970;2023-12-07T12:56:21;14.20;69.40
60313;DHT22;46158;52.850;6.970;2023-12-07T12:58:51;14.10;69.30
60313;DHT22;46158;52.850;6.970;2023-12-07T13:01:17;14.20;69.40
60313;DHT22;46158;52.850;6.970;2023-12-07T13:03:46;14.10;69.40
60313;DHT22;46158;52.850;6.970;2023-12-07T13:06:13;14.10;69.40
60313;DHT22;46158;52.850;6.970;2023-12-07T13:08:43;14.20;69.40
60313;DHT22;46158;52.850;6.970;2023-12-07T13:11:09;14.20;69.40
60313;DHT22;46158;52.850;6.970;2023-12-07T13:13:35;14.20;69.40
60313;DHT22;46158;52.850;6.970;2023-12-07T13:16:00;14.20;69.30
60313;DHT22;46158;52.850;6.970;2023-12-07T13:18:26;14.20;69.30
60313;DHT22;46158;52.850;6.970;2023-12-07T13:20:52;14.20;69.20
60313;DHT22;46158;52.850;6.970;2023-12-07T13:23:18;14.20;69.20
60313;DHT22;46158;52.850;6.970;2023-12-07T13:25:43;14.20;69.20
60313;DHT22;46158;52.850;6.970;2023-12-07T13:28:09;14.20;69.20
60313;DHT22;46158;52.850;6.970;2023-12-07T13:30:34;14.20;69.20
60313;DHT22;46158;52.850;6.970;2023-12-07T13:33:01;14.20;69.10
60313;DHT22;46158;52.850;6.970;2023-12-07T13:35:29;14.20;69.10
60313;DHT22;46158;52.850;6.970;2023-12-07T13:37:55;14.30;69.10
60313;DHT22;46158;52.850;6.970;2023-12-07T13:40:20;14.30;69.10
60313;DHT22;46158;52.850;6.970;2023-12-07T13:42:46;14.30;69.10
60313;DHT22;46158;52.850;6.970;2023-12-07T13:45:11;14.30;69.00
60313;DHT22;46158;52.850;6.970;2023-12-07T13:47:37;14.30;69.00
60313;DHT22;46158;52.850;6.970;2023-12-07T13:50:04;14.30;69.00
60313;DHT22;46158;52.850;6.970;2023-12-07T13:52:31;14.30;68.90
60313;DHT22;46158;52.850;6.970;2023-12-07T13:54:57;14.30;68.90
60313;DHT22;46158;52.850;6.970;2023-12-07T13:57:23;14.30;68.90
60313;DHT22;46158;52.850;6.970;2023-12-07T13:59:52;14.30;68.90
60313;DHT22;46158;52.850;6.970;2023-12-07T14:02:19;14.30;68.90
60313;DHT22;46158;52.850;6.970;2023-12-07T14:04:45;14.30;68.80
60313;DHT22;46158;52.850;6.970;2023-12-07T14:07:12;14.40;68.80
60313;DHT22;46158;52.850;6.970;2023-12-07T14:09:43;14.30;68.80
60313;DHT22;46158;52.850;6.970;2023-12-07T14:12:09;14.40;68.70
60313;DHT22;46158;52.850;6.970;2023-12-07T14:14:45;14.30;68.70
60313;DHT22;46158;52.850;6.970;2023-12-07T14:17:13;14.30;68.60
60313;DHT22;46158;52.850;6.970;2023-12-07T14:19:39;14.30;68.70
60313;DHT22;46158;52.850;6.970;2023-12-07T14:22:05;14.30;69.00
60313;DHT22;46158;52.850;6.970;2023-12-07T14:24:31;14.30;68.60
60313;DHT22;46158;52.850;6.970;2023-12-07T14:26:57;14.30;68.60
60313;DHT22;46158;52.850;6.970;2023-12-07T14:29:24;14.20;68.60
60313;DHT22;46158;52.850;6.970;2023-12-07T14:31:51;14.30;68.70
60313;DHT22;46158;52.850;6.970;2023-12-07T14:34:17;14.30;68.60
60313;DHT22;46158;52.850;6.970;2023-12-07T14:36:43;14.30;68.70
60313;DHT22;46158;52.850;6.970;2023-12-07T14:39:13;14.20;68.60
60313;DHT22;46158;52.850;6.970;2023-12-07T14:41:49;14.20;68.60
60313;DHT22;46158;52.850;6.970;2023-12-07T14:44:17;14.20;68.60
60313;DHT22;46158;52.850;6.970;2023-12-07T14:46:46;14.20;68.60
60313;DHT22;46158;52.850;6.970;2023-12-07T14:49:13;14.30;68.60
60313;DHT22;46158;52.850;6.970;2023-12-07T14:51:39;14.20;68.60
60313;DHT22;46158;52.850;6.970;2023-12-07T14:54:05;14.20;68.60
60313;DHT22;46158;52.850;6.970;2023-12-07T14:56:32;14.20;68.50
60313;DHT22;46158;52.850;6.970;2023-12-07T14:59:01;14.30;68.60
60313;DHT22;46158;52.850;6.970;2023-12-07T15:01:27;14.20;68.50
60313;DHT22;46158;52.850;6.970;2023-12-07T15:03:53;14.30;68.50
60313;DHT22;46158;52.850;6.970;2023-12-07T15:06:19;14.30;68.50
60313;DHT22;46158;52.850;6.970;2023-12-07T15:08:44;14.30;68.40
60313;DHT22;46158;52.850;6.970;2023-12-07T15:11:11;14.30;68.40
60313;DHT22;46158;52.850;6.970;2023-12-07T15:13:37;14.20;68.30
60313;DHT22;46158;52.850;6.970;2023-12-07T15:16:03;14.30;68.30
60313;DHT22;46158;52.850;6.970;2023-12-07T15:18:29;14.30;68.20
60313;DHT22;46158;52.850;6.970;2023-12-07T15:20:57;14.30;68.20
60313;DHT22;46158;52.850;6.970;2023-12-07T15:23:22;14.30;68.20
60313;DHT22;46158;52.850;6.970;2023-12-07T15:25:48;14.20;68.10
60313;DHT22;46158;52.850;6.970;2023-12-07T15:28:14;14.30;68.20
60313;DHT22;46158;52.850;6.970;2023-12-07T15:30:40;14.30;68.10